createdAt,value
2019-04-11T00:02:22.693Z,42.09
2019-04-11T00:04:55.038Z,42.13
2019-04-11T00:07:27.949Z,42.13
2019-04-11T00:09:59.913Z,42.14
2019-04-11T00:12:33.017Z,42.10
2019-04-11T00:15:04.743Z,42.15
2019-04-11T00:17:36.362Z,42.15
2019-04-11T00:20:09.621Z,42.02
2019-04-11T00:22:41.565Z,42.05
2019-04-11T00:25:13.592Z,42.09
2019-04-11T00:27:45.504Z,42.11
2019-04-11T00:30:17.987Z,42.16
2019-04-11T00:32:49.877Z,42.13
2019-04-11T00:35:21.858Z,42.20
2019-04-11T00:37:53.723Z,42.24
2019-04-11T00:40:25.340Z,42.28
2019-04-11T00:42:57.047Z,42.31
2019-04-11T00:45:29.708Z,42.36
2019-04-11T00:48:01.677Z,42.41
2019-04-11T00:50:33.625Z,42.40
2019-04-11T00:53:05.608Z,42.43
2019-04-11T00:55:37.700Z,42.48
2019-04-11T00:58:09.642Z,42.58
2019-04-11T01:00:42.981Z,42.68
2019-04-11T01:03:14.866Z,42.78
2019-04-11T01:05:47.850Z,42.88
2019-04-11T01:08:19.847Z,42.97
2019-04-11T01:10:52.818Z,43.07
2019-04-11T01:13:25.843Z,43.19
2019-04-11T01:16:02.976Z,43.33
2019-04-11T01:18:36.109Z,43.36
2019-04-11T01:21:08.672Z,43.39
2019-04-11T01:23:40.378Z,43.41
2019-04-11T01:26:12.849Z,43.44
2019-04-11T01:28:44.946Z,43.50
2019-04-11T01:31:18.325Z,43.56
2019-04-11T01:33:49.956Z,43.64
2019-04-11T01:36:22.895Z,43.69
2019-04-11T01:38:57.053Z,43.75
2019-04-11T01:41:28.956Z,43.80
2019-04-11T01:44:03.750Z,43.90
2019-04-11T01:46:34.097Z,44.01
2019-04-11T01:49:17.083Z,44.13
2019-04-11T01:51:49.960Z,44.21
2019-04-11T01:54:21.866Z,44.36
2019-04-11T01:56:53.746Z,44.47
2019-04-11T01:59:25.352Z,44.59
2019-04-11T02:02:15.002Z,44.71
2019-04-11T02:04:54.499Z,44.80
2019-04-11T02:07:27.084Z,44.86
2019-04-11T02:09:58.670Z,45.04
2019-04-11T02:12:31.041Z,45.23
2019-04-11T02:15:03.921Z,45.39
2019-04-11T02:17:35.655Z,45.53
2019-04-11T02:20:09.137Z,45.63
2019-04-11T02:22:50.772Z,45.70
2019-04-11T02:25:59.182Z,45.73
2019-04-11T02:28:32.848Z,45.73
2019-04-11T02:31:05.381Z,45.74
2019-04-11T02:33:38.915Z,45.85
2019-04-11T02:36:12.258Z,45.94
2019-04-11T02:38:46.458Z,46.03
2019-04-11T02:41:19.002Z,46.08
2019-04-11T02:43:51.057Z,46.12
2019-04-11T02:46:34.620Z,46.13
2019-04-11T02:48:58.448Z,46.10
2019-04-11T02:51:31.162Z,46.07
2019-04-11T02:54:04.724Z,46.09
2019-04-11T02:56:36.742Z,46.01
2019-04-11T02:59:09.013Z,46.02
2019-04-11T03:01:42.082Z,46.01
2019-04-11T03:04:14.846Z,46.11
2019-04-11T03:06:47.929Z,46.20
2019-04-11T03:09:21.974Z,46.33
2019-04-11T03:11:54.650Z,46.47
2019-04-11T03:14:27.743Z,46.56
2019-04-11T03:17:10.699Z,46.71
2019-04-11T03:19:43.990Z,46.85
2019-04-11T03:22:08.103Z,46.90
2019-04-11T03:24:40.653Z,46.93
2019-04-11T03:27:12.243Z,46.88
2019-04-11T03:29:45.272Z,46.82
2019-04-11T03:33:04.597Z,46.79
2019-04-11T03:35:37.686Z,46.78
2019-04-11T03:37:50.211Z,46.81
2019-04-11T03:40:19.548Z,46.88
2019-04-11T03:42:43.181Z,46.99
2019-04-11T03:45:27.622Z,47.13
2019-04-11T03:47:56.097Z,47.26
2019-04-11T03:50:17.002Z,47.29
2019-04-11T03:52:46.292Z,47.28
2019-04-11T03:55:21.451Z,47.31
2019-04-11T03:57:54.338Z,47.33
2019-04-11T04:00:31.314Z,47.35
2019-04-11T04:03:01.459Z,47.36
2019-04-11T04:05:36.293Z,47.35
2019-04-11T04:08:06.463Z,47.35
2019-04-11T04:10:43.600Z,47.32
2019-04-11T04:13:17.612Z,47.33
2019-04-11T04:16:12.160Z,47.29
2019-04-11T04:18:43.583Z,47.31
2019-04-11T04:21:38.586Z,47.40
2019-04-11T04:24:32.153Z,47.43
2019-04-11T04:27:04.490Z,47.59
2019-04-11T04:29:37.730Z,47.58
2019-04-11T04:32:09.823Z,47.55
2019-04-11T04:34:42.222Z,47.56
2019-04-11T04:37:16.158Z,47.57
2019-04-11T04:39:50.298Z,47.67
2019-04-11T04:42:31.083Z,47.65
2019-04-11T04:44:58.110Z,47.71
2019-04-11T04:47:37.026Z,47.84
2019-04-11T04:50:04.564Z,47.82
2019-04-11T04:52:38.034Z,47.80
2019-04-11T04:55:10.656Z,47.82
2019-04-11T04:57:44.816Z,47.84
2019-04-11T05:00:18.846Z,47.82
2019-04-11T05:02:52.246Z,47.88
2019-04-11T05:05:24.484Z,47.88
2019-04-11T05:07:58.319Z,48.01
2019-04-11T05:10:30.619Z,48.06
2019-04-11T05:13:03.583Z,48.08
2019-04-11T05:15:36.606Z,48.11
2019-04-11T05:18:09.358Z,48.17
2019-04-11T05:20:41.824Z,48.16
2019-04-11T05:23:13.927Z,48.13
2019-04-11T05:25:46.610Z,48.18
2019-04-11T05:28:19.263Z,48.18
2019-04-11T05:30:51.265Z,48.18
2019-04-11T05:33:23.271Z,48.23
2019-04-11T05:35:54.834Z,48.29
2019-04-11T05:38:27.381Z,48.40
2019-04-11T05:40:58.978Z,48.42
2019-04-11T05:43:36.640Z,48.46
2019-04-11T05:46:21.946Z,48.50
2019-04-11T05:49:03.784Z,48.48
2019-04-11T05:51:40.927Z,48.50
2019-04-11T05:54:10.621Z,48.51
2019-04-11T05:56:43.535Z,48.53
2019-04-11T05:59:20.037Z,48.61
2019-04-11T06:02:01.602Z,48.58
2019-04-11T06:04:42.814Z,48.51
2019-04-11T06:07:30.561Z,48.46
2019-04-11T06:10:09.764Z,48.43
2019-04-11T06:12:59.434Z,48.36
2019-04-11T06:15:36.243Z,48.35
2019-04-11T06:18:37.365Z,48.36
2019-04-11T06:21:11.757Z,48.37
2019-04-11T06:24:08.146Z,48.36
2019-04-11T06:27:15.253Z,48.34
2019-04-11T06:29:52.978Z,48.34
2019-04-11T06:32:43.472Z,48.34
2019-04-11T06:35:26.141Z,48.53
2019-04-11T06:38:30.327Z,48.59
2019-04-11T06:41:12.490Z,48.63
2019-04-11T06:43:50.081Z,48.53
2019-04-11T06:46:51.707Z,48.49
2019-04-11T06:49:18.327Z,48.39
2019-04-11T06:51:55.099Z,48.32
2019-04-11T06:54:34.358Z,48.05
2019-04-11T06:57:09.834Z,48.09
2019-04-11T06:59:44.802Z,47.94
2019-04-11T07:02:20.300Z,47.62
2019-04-11T07:04:52.378Z,47.47
2019-04-11T07:07:28.789Z,47.24
2019-04-11T07:10:03.909Z,46.97
2019-04-11T07:12:57.284Z,46.81
2019-04-11T07:15:37.672Z,46.60
2019-04-11T07:18:27.157Z,46.35
2019-04-11T07:21:01.014Z,46.18
2019-04-11T07:23:51.649Z,46.02
2019-04-11T07:26:42.184Z,45.88
2019-04-11T07:29:33.700Z,45.62
2019-04-11T07:32:20.221Z,45.57
2019-04-11T07:35:10.843Z,45.33
2019-04-11T07:37:44.700Z,45.33
2019-04-11T07:40:35.334Z,45.17
2019-04-11T07:43:29.256Z,44.94
2019-04-11T07:46:22.649Z,44.67
2019-04-11T07:49:08.450Z,44.51
2019-04-11T07:51:46.408Z,44.23
2019-04-11T07:54:32.059Z,44.17
2019-04-11T07:57:12.928Z,44.23
2019-04-11T08:00:00.266Z,43.96
2019-04-11T08:02:49.088Z,43.98
2019-04-11T08:05:54.484Z,43.84
2019-04-11T08:08:49.330Z,43.71
2019-04-11T08:11:28.508Z,43.38
2019-04-11T08:14:22.399Z,43.34
2019-04-11T08:17:07.237Z,43.24
2019-04-11T08:19:57.459Z,43.21
2019-04-11T08:22:36.965Z,43.18
2019-04-11T08:25:26.773Z,43.25
2019-04-11T08:28:05.894Z,42.65
2019-04-11T08:30:55.555Z,42.70
2019-04-11T08:33:28.802Z,42.82
2019-04-11T08:36:22.496Z,42.66
2019-04-11T08:38:56.392Z,42.73
2019-04-11T08:41:56.977Z,42.75
2019-04-11T08:44:36.177Z,42.69
2019-04-11T08:47:13.117Z,42.66
2019-04-11T08:49:48.105Z,42.54
2019-04-11T08:52:40.316Z,42.51
2019-04-11T08:55:24.344Z,42.40
2019-04-11T08:58:20.533Z,42.40
2019-04-11T09:01:00.231Z,42.35
2019-04-11T09:04:02.149Z,41.92
2019-04-11T09:06:32.679Z,41.64
2019-04-11T09:09:42.856Z,41.73
2019-04-11T09:12:15.097Z,41.69
2019-04-11T09:15:10.747Z,41.52
2019-04-11T09:18:01.062Z,41.49
2019-04-11T09:20:43.497Z,41.45
2019-04-11T09:23:17.735Z,41.27
2019-04-11T09:26:07.602Z,41.06
2019-04-11T09:28:51.594Z,41.16
2019-04-11T09:31:43.464Z,41.11
2019-04-11T09:34:52.823Z,41.01
2019-04-11T09:37:29.521Z,40.96
2019-04-11T09:40:20.153Z,40.88
2019-04-11T09:43:19.944Z,40.73
2019-04-11T09:46:28.686Z,40.79
2019-04-11T09:49:24.852Z,40.61
2019-04-11T09:52:05.619Z,40.60
2019-04-11T09:55:07.213Z,40.37
2019-04-11T09:57:46.085Z,40.41
2019-04-11T10:00:41.047Z,40.19
2019-04-11T10:03:23.369Z,39.99
2019-04-11T10:06:21.607Z,39.93
2019-04-11T10:08:57.657Z,40.01
2019-04-11T10:11:59.919Z,40.01
2019-04-11T10:14:31.672Z,39.81
2019-04-11T10:17:22.709Z,39.65
2019-04-11T10:20:02.762Z,39.07
2019-04-11T10:22:52.276Z,38.91
2019-04-11T10:25:28.262Z,39.09
2019-04-11T10:28:31.483Z,38.67
2019-04-11T10:31:20.531Z,38.72
2019-04-11T10:34:14.233Z,38.47
2019-04-11T10:36:55.794Z,38.16
2019-04-11T10:40:01.861Z,38.14
2019-04-11T10:42:34.968Z,37.68
2019-04-11T10:45:29.407Z,37.20
2019-04-11T10:48:07.750Z,36.98
2019-04-11T10:50:58.234Z,37.27
2019-04-11T10:53:31.187Z,37.33
2019-04-11T10:56:22.210Z,36.08
2019-04-11T10:58:55.848Z,36.09
2019-04-11T11:01:46.414Z,36.32
2019-04-11T11:04:20.860Z,36.43
2019-04-11T11:06:55.910Z,36.51
2019-04-11T11:10:03.192Z,36.35
2019-04-11T11:12:57.308Z,36.50
2019-04-11T11:15:31.664Z,36.83
2019-04-11T11:18:42.685Z,36.81
2019-04-11T11:21:00.323Z,36.51
2019-04-11T11:23:32.986Z,36.64
2019-04-11T11:26:22.581Z,36.61
2019-04-11T11:29:13.443Z,36.52
2019-04-11T11:32:07.638Z,36.37
2019-04-11T11:34:57.469Z,36.12
2019-04-11T11:37:50.173Z,36.01
2019-04-11T11:40:42.402Z,35.98
2019-04-11T11:43:19.615Z,36.25
2019-04-11T11:46:16.118Z,36.23
2019-04-11T11:49:08.061Z,36.15
2019-04-11T11:52:01.565Z,36.17
2019-04-11T11:54:39.807Z,35.86
2019-04-11T11:57:20.409Z,36.04
2019-04-11T12:00:00.790Z,35.89
2019-04-11T12:02:37.003Z,35.89
2019-04-11T12:05:18.086Z,35.98
2019-04-11T12:07:56.079Z,35.86
2019-04-11T12:10:41.659Z,35.70
2019-04-11T12:13:28.348Z,35.23
2019-04-11T12:16:21.910Z,35.30
2019-04-11T12:19:22.184Z,35.42
2019-04-11T12:21:55.875Z,35.61
2019-04-11T12:24:38.850Z,35.41
2019-04-11T12:27:28.950Z,35.23
2019-04-11T12:30:20.857Z,35.25
2019-04-11T12:33:08.938Z,35.34
2019-04-11T12:35:51.074Z,35.21
2019-04-11T12:38:47.467Z,34.74
2019-04-11T12:41:30.945Z,34.71
2019-04-11T12:44:29.127Z,34.17
2019-04-11T12:47:20.873Z,34.09
2019-04-11T12:50:20.214Z,34.15
2019-04-11T12:52:58.299Z,34.23
2019-04-11T12:55:35.357Z,34.12
2019-04-11T12:58:33.036Z,34.23
2019-04-11T13:01:41.688Z,34.23
2019-04-11T13:04:30.777Z,34.26
2019-04-11T13:07:33.416Z,33.51
2019-04-11T13:10:24.193Z,33.63
2019-04-11T13:13:20.738Z,33.36
2019-04-11T13:15:56.581Z,33.43
2019-04-11T13:18:47.100Z,33.49
2019-04-11T13:21:31.701Z,33.39
2019-04-11T13:24:37.470Z,33.41
2019-04-11T13:27:28.103Z,33.38
2019-04-11T13:30:18.993Z,33.27
2019-04-11T13:32:53.743Z,32.81
2019-04-11T13:36:02.348Z,32.89
2019-04-11T13:38:41.326Z,32.82
2019-04-11T13:41:34.962Z,32.81
2019-04-11T13:44:15.818Z,32.62
2019-04-11T13:47:06.562Z,32.66
2019-04-11T13:49:46.178Z,32.50
2019-04-11T13:52:36.793Z,32.57
2019-04-11T13:55:14.528Z,32.52
2019-04-11T13:58:05.590Z,32.22
2019-04-11T14:00:56.553Z,32.55
2019-04-11T14:03:47.469Z,32.20
2019-04-11T14:06:30.836Z,32.16
2019-04-11T14:09:13.256Z,32.11
2019-04-11T14:11:48.918Z,32.00
2019-04-11T14:14:32.968Z,31.72
2019-04-11T14:17:12.784Z,32.00
2019-04-11T14:19:58.833Z,31.79
2019-04-11T14:22:36.477Z,31.45
2019-04-11T14:25:27.707Z,31.69
2019-04-11T14:28:01.387Z,31.74
2019-04-11T14:30:51.641Z,31.81
2019-04-11T14:33:25.189Z,31.80
2019-04-11T14:36:33.892Z,31.74
2019-04-11T14:39:11.418Z,31.56
2019-04-11T14:42:01.564Z,31.58
2019-04-11T14:44:34.032Z,31.49
2019-04-11T14:47:30.653Z,31.30
2019-04-11T14:50:03.740Z,31.37
2019-04-11T14:52:54.299Z,30.96
2019-04-11T14:55:26.747Z,30.96
2019-04-11T14:58:16.120Z,31.11
2019-04-11T15:00:48.972Z,30.46
2019-04-11T15:03:58.016Z,30.70
2019-04-11T15:06:33.838Z,30.80
2019-04-11T15:09:24.877Z,30.68
2019-04-11T15:12:17.554Z,30.92
2019-04-11T15:15:20.014Z,30.67
2019-04-11T15:17:55.885Z,30.79
2019-04-11T15:20:42.353Z,30.93
2019-04-11T15:23:17.959Z,30.62
2019-04-11T15:26:08.815Z,29.95
2019-04-11T15:29:05.512Z,30.03
2019-04-11T15:31:55.788Z,30.38
2019-04-11T15:34:44.493Z,30.37
2019-04-11T15:37:30.758Z,30.38
2019-04-11T15:40:10.141Z,30.31
2019-04-11T15:43:06.654Z,30.29
2019-04-11T15:45:50.212Z,30.14
2019-04-11T15:48:53.834Z,30.20
2019-04-11T15:51:48.442Z,30.24
2019-04-11T15:54:42.102Z,29.90
2019-04-11T15:57:33.410Z,29.86
2019-04-11T16:00:27.646Z,30.09
2019-04-11T16:03:17.061Z,30.09
2019-04-11T16:06:07.669Z,30.14
2019-04-11T16:08:46.969Z,29.96
2019-04-11T16:11:51.375Z,30.00
2019-04-11T16:14:27.522Z,29.92
2019-04-11T16:17:35.845Z,29.96
2019-04-11T16:20:17.772Z,30.07
2019-04-11T16:23:07.668Z,30.00
2019-04-11T16:25:40.828Z,29.99
2019-04-11T16:28:30.097Z,29.95
2019-04-11T16:31:02.075Z,29.89
2019-04-11T16:33:51.712Z,29.82
2019-04-11T16:36:34.188Z,29.70
2019-04-11T16:39:42.865Z,29.91
2019-04-11T16:42:17.076Z,29.92
2019-04-11T16:45:16.402Z,29.94
2019-04-11T16:48:15.774Z,29.90
2019-04-11T16:50:47.495Z,29.93
2019-04-11T16:53:19.203Z,30.05
2019-04-11T16:55:53.790Z,30.10
2019-04-11T16:58:24.953Z,30.12
2019-04-11T17:00:56.716Z,30.13
2019-04-11T17:03:28.755Z,30.03
2019-04-11T17:06:19.358Z,30.09
2019-04-11T17:09:06.347Z,30.09
2019-04-11T17:11:38.701Z,30.22
2019-04-11T17:14:11.898Z,30.23
2019-04-11T17:16:43.783Z,30.29
2019-04-11T17:19:15.670Z,30.31
2019-04-11T17:21:48.943Z,30.36
2019-04-11T17:24:20.958Z,30.37
2019-04-11T17:26:53.497Z,30.32
2019-04-11T17:29:25.514Z,30.37
2019-04-11T17:31:57.267Z,30.36
2019-04-11T17:34:32.114Z,30.26
2019-04-11T17:37:03.386Z,30.37
2019-04-11T17:39:36.761Z,30.42
2019-04-11T17:42:10.897Z,30.44
2019-04-11T17:44:42.486Z,30.45
2019-04-11T17:47:14.340Z,30.47
2019-04-11T17:49:46.198Z,30.48
2019-04-11T17:52:17.909Z,30.53
2019-04-11T17:54:51.948Z,30.58
2019-04-11T17:57:26.774Z,30.63
2019-04-11T17:59:59.121Z,30.67
2019-04-11T18:02:30.613Z,30.71
2019-04-11T18:05:02.382Z,30.75
2019-04-11T18:07:34.222Z,30.77
2019-04-11T18:10:07.153Z,30.77
2019-04-11T18:12:38.882Z,30.82
2019-04-11T18:15:11.270Z,30.84
2019-04-11T18:17:42.987Z,30.87
2019-04-11T18:20:15.458Z,30.88
2019-04-11T18:22:50.110Z,30.94
2019-04-11T18:25:21.554Z,30.99
2019-04-11T18:27:53.527Z,31.01
2019-04-11T18:30:26.399Z,31.04
2019-04-11T18:32:57.177Z,31.07
2019-04-11T18:35:26.572Z,31.10
2019-04-11T18:38:01.727Z,31.14
2019-04-11T18:40:33.060Z,31.20
2019-04-11T18:43:04.830Z,31.21
2019-04-11T18:45:37.349Z,31.25
2019-04-11T18:48:09.053Z,31.28
2019-04-11T18:50:40.988Z,31.28
2019-04-11T18:53:12.748Z,31.36
2019-04-11T18:55:44.659Z,31.42
2019-04-11T18:58:16.392Z,31.44
2019-04-11T19:00:48.821Z,31.49
2019-04-11T19:03:20.527Z,31.51
2019-04-11T19:05:52.247Z,31.55
2019-04-11T19:08:24.066Z,31.61
2019-04-11T19:10:56.034Z,31.66
2019-04-11T19:13:27.753Z,31.69
2019-04-11T19:16:00.601Z,31.95
2019-04-11T19:18:32.383Z,32.31
2019-04-11T19:21:04.196Z,32.58
2019-04-11T19:23:36.723Z,32.91
2019-04-11T19:26:09.381Z,33.13
2019-04-11T19:28:41.244Z,33.33
2019-04-11T19:31:13.698Z,33.54
2019-04-11T19:33:45.713Z,33.69
2019-04-11T19:36:17.508Z,33.84
2019-04-11T19:38:49.552Z,33.99
2019-04-11T19:41:21.339Z,34.09
2019-04-11T19:43:53.298Z,34.16
2019-04-11T19:46:25.044Z,34.25
2019-04-11T19:48:59.429Z,34.35
2019-04-11T19:51:30.679Z,34.40
2019-04-11T19:54:03.391Z,34.47
2019-04-11T19:56:43.237Z,34.43
2019-04-11T19:59:14.985Z,34.42
2019-04-11T20:01:46.778Z,34.36
2019-04-11T20:04:21.719Z,34.33
2019-04-11T20:06:53.023Z,34.36
2019-04-11T20:09:25.058Z,34.42
2019-04-11T20:11:57.990Z,34.51
2019-04-11T20:14:34.132Z,34.61
2019-04-11T20:17:04.267Z,34.66
2019-04-11T20:19:35.966Z,34.60
2019-04-11T20:22:09.339Z,34.57
2019-04-11T20:24:45.747Z,34.61
2019-04-11T20:27:14.655Z,34.69
2019-04-11T20:29:46.416Z,34.79
2019-04-11T20:32:18.223Z,34.94
2019-04-11T20:34:50.247Z,35.14
2019-04-11T20:37:24.414Z,35.34
2019-04-11T20:39:59.679Z,35.56
2019-04-11T20:42:31.442Z,35.71
2019-04-11T20:45:03.373Z,35.81
2019-04-11T20:47:35.104Z,35.84
2019-04-11T20:50:08.434Z,35.86
2019-04-11T20:52:40.146Z,35.92
2019-04-11T20:55:13.046Z,35.95
2019-04-11T20:57:44.729Z,35.95
2019-04-11T21:00:17.030Z,36.01
2019-04-11T21:02:49.112Z,35.89
2019-04-11T21:05:21.091Z,35.84
2019-04-11T21:07:52.826Z,35.87
2019-04-11T21:10:25.239Z,35.88
2019-04-11T21:12:57.026Z,35.94
2019-04-11T21:15:28.761Z,35.91
2019-04-11T21:18:00.755Z,35.93
2019-04-11T21:20:32.486Z,35.96
2019-04-11T21:23:04.187Z,35.97
2019-04-11T21:25:36.592Z,35.95
2019-04-11T21:28:08.327Z,35.90
2019-04-11T21:30:40.004Z,35.96
2019-04-11T21:33:11.909Z,35.96
2019-04-11T21:35:43.740Z,35.93
2019-04-11T21:38:15.418Z,35.94
2019-04-11T21:40:47.857Z,35.93
2019-04-11T21:43:19.562Z,35.92
2019-04-11T21:45:51.585Z,35.92
2019-04-11T21:48:23.443Z,35.91
2019-04-11T21:50:55.115Z,35.95
2019-04-11T21:53:36.071Z,35.95
2019-04-11T21:56:00.973Z,36.03
2019-04-11T21:58:32.634Z,36.13
2019-04-11T22:01:10.385Z,36.12
2019-04-11T22:03:42.766Z,36.14
2019-04-11T22:06:14.787Z,36.12
2019-04-11T22:08:46.727Z,36.14
2019-04-11T22:11:19.079Z,36.19
2019-04-11T22:13:50.728Z,36.24
2019-04-11T22:16:22.397Z,36.27
2019-04-11T22:18:54.190Z,36.28
2019-04-11T22:21:25.895Z,36.29
2019-04-11T22:23:57.629Z,36.31
2019-04-11T22:26:29.267Z,36.37
2019-04-11T22:29:01.406Z,36.36
2019-04-11T22:31:33.018Z,36.43
2019-04-11T22:34:22.451Z,36.48
2019-04-11T22:36:54.276Z,36.64
2019-04-11T22:39:26.097Z,36.58
2019-04-11T22:41:57.775Z,36.62
2019-04-11T22:44:29.809Z,36.66
2019-04-11T22:47:01.449Z,36.68
2019-04-11T22:49:33.090Z,36.71
2019-04-11T22:52:04.769Z,36.69
2019-04-11T22:54:36.414Z,36.71
2019-04-11T22:57:11.887Z,36.74
2019-04-11T22:59:45.034Z,36.80
2019-04-11T23:02:28.594Z,36.83
2019-04-11T23:05:00.215Z,36.81
2019-04-11T23:07:31.889Z,36.90
2019-04-11T23:10:03.632Z,36.93
2019-04-11T23:12:35.291Z,36.98
2019-04-11T23:15:08.818Z,36.99
2019-04-11T23:17:44.086Z,36.99
2019-04-11T23:20:15.422Z,36.99
2019-04-11T23:22:47.113Z,37.04
2019-04-11T23:25:18.827Z,37.08
2019-04-11T23:27:50.438Z,37.06
2019-04-11T23:30:22.528Z,37.07
2019-04-11T23:32:54.386Z,37.06
2019-04-11T23:35:26.120Z,37.07
2019-04-11T23:37:57.769Z,37.06
2019-04-11T23:40:29.475Z,37.13
2019-04-11T23:43:01.239Z,37.13
2019-04-11T23:45:33.755Z,37.18
2019-04-11T23:48:05.537Z,37.25
2019-04-11T23:50:37.159Z,37.29
2019-04-11T23:53:08.778Z,37.32
2019-04-11T23:55:40.420Z,37.38
2019-04-11T23:58:12.059Z,37.47
